createdAt,value
2023-03-04T00:01:14.149Z,6.72
2023-03-04T00:03:41.000Z,7.13
2023-03-04T00:06:08.213Z,7.80
2023-03-04T00:08:35.412Z,8.23
2023-03-04T00:11:02.594Z,6.03
2023-03-04T00:13:29.466Z,7.50
2023-03-04T00:15:56.393Z,7.50
2023-03-04T00:18:23.196Z,6.43
2023-03-04T00:20:49.975Z,8.67
2023-03-04T00:23:17.208Z,7.35
2023-03-04T00:25:44.324Z,8.73
2023-03-04T00:28:11.110Z,10.02
2023-03-04T00:30:37.994Z,9.55
2023-03-04T00:33:04.926Z,8.63
2023-03-04T00:35:31.759Z,11.77
2023-03-04T00:37:58.666Z,10.60
2023-03-04T00:40:25.536Z,11.35
2023-03-04T00:42:52.308Z,9.93
2023-03-04T00:45:19.145Z,9.30
2023-03-04T00:47:46.067Z,9.93
2023-03-04T00:50:12.967Z,10.05
2023-03-04T00:52:39.894Z,9.70
2023-03-04T00:55:08.025Z,9.10
2023-03-04T00:57:34.830Z,7.87
2023-03-04T01:00:01.677Z,9.75
2023-03-04T01:02:28.539Z,8.60
2023-03-04T01:04:55.290Z,9.38
2023-03-04T01:07:22.414Z,7.88
2023-03-04T01:09:49.319Z,9.27
2023-03-04T01:12:16.169Z,9.00
2023-03-04T01:14:42.972Z,8.80
2023-03-04T01:17:09.997Z,9.02
2023-03-04T01:19:36.845Z,9.07
2023-03-04T01:22:04.034Z,9.13
2023-03-04T01:24:31.150Z,10.70
2023-03-04T01:26:57.951Z,9.32
2023-03-04T01:29:24.685Z,10.38
2023-03-04T01:31:51.704Z,10.98
2023-03-04T01:34:18.556Z,9.73
2023-03-04T01:36:45.605Z,10.05
2023-03-04T01:39:12.489Z,10.38
2023-03-04T01:41:39.527Z,9.77
2023-03-04T01:44:06.569Z,10.10
2023-03-04T01:46:33.755Z,11.17
2023-03-04T01:49:00.797Z,10.75
2023-03-04T01:51:27.727Z,12.32
2023-03-04T01:53:54.774Z,11.52
2023-03-04T01:56:30.686Z,11.65
2023-03-04T01:59:19.400Z,12.67
2023-03-04T02:01:49.807Z,12.63
2023-03-04T02:04:19.450Z,11.02
2023-03-04T02:06:47.996Z,10.80
2023-03-04T02:09:16.263Z,10.55
2023-03-04T02:11:46.779Z,11.90
2023-03-04T02:14:14.958Z,11.20
2023-03-04T02:16:42.220Z,11.90
2023-03-04T02:19:38.195Z,12.20
2023-03-04T02:22:05.116Z,10.32
2023-03-04T02:24:39.191Z,9.47
2023-03-04T02:27:06.003Z,9.65
2023-03-04T02:29:33.002Z,11.55
2023-03-04T02:31:59.960Z,11.02
2023-03-04T02:34:34.212Z,10.45
2023-03-04T02:37:02.984Z,11.33
2023-03-04T02:39:44.973Z,12.20
2023-03-04T02:42:12.684Z,9.88
2023-03-04T02:44:44.980Z,9.98
2023-03-04T02:47:13.712Z,12.45
2023-03-04T02:49:42.113Z,12.77
2023-03-04T02:52:20.768Z,13.45
2023-03-04T02:54:47.771Z,12.68
2023-03-04T02:57:15.082Z,12.88
2023-03-04T02:59:43.132Z,12.57
2023-03-04T03:02:10.566Z,12.80
2023-03-04T03:04:39.262Z,13.73
2023-03-04T03:07:06.716Z,14.15
2023-03-04T03:09:33.586Z,13.52
2023-03-04T03:12:00.441Z,13.13
2023-03-04T03:14:27.314Z,13.30
2023-03-04T03:16:54.110Z,13.20
2023-03-04T03:19:20.928Z,13.23
2023-03-04T03:21:47.823Z,12.25
2023-03-04T03:24:14.570Z,12.00
2023-03-04T03:26:41.416Z,11.93
2023-03-04T03:29:08.431Z,12.77
2023-03-04T03:31:35.335Z,13.20
2023-03-04T03:34:02.178Z,12.65
2023-03-04T03:36:29.136Z,13.98
2023-03-04T03:38:56.081Z,12.33
2023-03-04T03:41:22.870Z,13.52
2023-03-04T03:43:49.851Z,12.43
2023-03-04T03:46:16.688Z,10.75
2023-03-04T03:48:43.480Z,11.20
2023-03-04T03:51:10.343Z,11.03
2023-03-04T03:53:37.124Z,10.45
2023-03-04T03:56:04.299Z,10.68
2023-03-04T03:58:31.210Z,8.77
2023-03-04T04:00:58.650Z,10.32
2023-03-04T04:03:25.977Z,10.60
2023-03-04T04:05:53.063Z,10.13
2023-03-04T04:08:20.016Z,10.07
2023-03-04T04:10:46.934Z,9.45
2023-03-04T04:13:13.785Z,10.27
2023-03-04T04:15:40.600Z,10.70
2023-03-04T04:18:07.912Z,9.57
2023-03-04T04:20:35.443Z,10.07
2023-03-04T04:23:03.160Z,10.60
2023-03-04T04:25:30.196Z,10.40
2023-03-04T04:27:57.160Z,9.50
2023-03-04T04:30:24.035Z,11.18
2023-03-04T04:32:50.999Z,9.73
2023-03-04T04:35:18.195Z,10.38
2023-03-04T04:37:45.120Z,10.75
2023-03-04T04:40:12.850Z,9.80
2023-03-04T04:42:39.689Z,9.38
2023-03-04T04:45:07.367Z,9.18
2023-03-04T04:47:34.164Z,9.52
2023-03-04T04:50:01.201Z,8.68
2023-03-04T04:52:28.113Z,9.37
2023-03-04T04:54:54.938Z,9.25
2023-03-04T04:57:21.977Z,9.00
2023-03-04T04:59:48.962Z,10.23
2023-03-04T05:02:16.282Z,9.65
2023-03-04T05:04:43.195Z,9.30
2023-03-04T05:07:10.087Z,9.10
2023-03-04T05:09:36.936Z,9.02
2023-03-04T05:12:04.094Z,10.30
2023-03-04T05:14:30.868Z,10.27
2023-03-04T05:16:57.670Z,8.97
2023-03-04T05:19:24.607Z,9.02
2023-03-04T05:21:51.549Z,9.90
2023-03-04T05:24:18.523Z,9.43
2023-03-04T05:26:45.501Z,8.90
2023-03-04T05:29:12.417Z,9.90
2023-03-04T05:31:39.647Z,10.35
2023-03-04T05:34:06.690Z,10.55
2023-03-04T05:36:33.606Z,9.98
2023-03-04T05:39:00.562Z,10.40
2023-03-04T05:41:27.610Z,10.10
2023-03-04T05:43:54.371Z,9.00
2023-03-04T05:46:21.180Z,10.07
2023-03-04T05:48:48.150Z,9.52
2023-03-04T05:51:15.005Z,9.00
2023-03-04T05:53:41.846Z,8.93
2023-03-04T05:56:17.167Z,9.65
2023-03-04T05:58:44.640Z,10.45
2023-03-04T06:01:11.546Z,10.23
2023-03-04T06:03:38.668Z,10.18
2023-03-04T06:06:06.203Z,10.03
2023-03-04T06:08:33.056Z,9.80
2023-03-04T06:11:00.054Z,10.05
2023-03-04T06:13:27.057Z,10.20
2023-03-04T06:15:55.837Z,10.18
2023-03-04T06:18:23.801Z,9.40
2023-03-04T06:20:50.658Z,9.82
2023-03-04T06:23:17.704Z,9.23
2023-03-04T06:25:44.613Z,9.75
2023-03-04T06:28:11.685Z,9.98
2023-03-04T06:30:38.536Z,9.67
2023-03-04T06:33:05.469Z,9.10
2023-03-04T06:35:32.387Z,10.38
2023-03-04T06:37:59.228Z,10.75
2023-03-04T06:40:26.158Z,10.77
2023-03-04T06:42:52.931Z,9.57
2023-03-04T06:45:19.808Z,10.60
2023-03-04T06:47:46.676Z,10.30
2023-03-04T06:50:14.210Z,9.93
2023-03-04T06:52:41.980Z,10.15
2023-03-04T06:55:09.935Z,9.73
2023-03-04T06:57:36.825Z,10.25
2023-03-04T07:00:04.009Z,10.40
2023-03-04T07:02:31.039Z,10.43
2023-03-04T07:04:57.906Z,10.10
2023-03-04T07:07:24.770Z,10.50
2023-03-04T07:09:51.690Z,10.65
2023-03-04T07:12:18.631Z,10.48
2023-03-04T07:14:45.383Z,10.00
2023-03-04T07:17:12.232Z,10.45
2023-03-04T07:19:39.001Z,11.17
2023-03-04T07:22:06.153Z,11.93
2023-03-04T07:24:33.546Z,11.43
2023-03-04T07:27:00.426Z,12.23
2023-03-04T07:29:27.276Z,12.18
2023-03-04T07:31:54.249Z,12.73
2023-03-04T07:34:21.078Z,12.05
2023-03-04T07:36:47.942Z,11.60
2023-03-04T07:39:14.803Z,11.88
2023-03-04T07:41:41.862Z,13.52
2023-03-04T07:44:13.337Z,12.67
2023-03-04T07:46:40.901Z,11.48
2023-03-04T07:49:08.374Z,12.35
2023-03-04T07:51:35.171Z,11.77
2023-03-04T07:54:02.492Z,12.35
2023-03-04T07:56:32.368Z,12.10
2023-03-04T07:59:00.109Z,11.88
2023-03-04T08:01:33.171Z,11.13
2023-03-04T08:04:00.852Z,11.73
2023-03-04T08:06:28.622Z,11.38
2023-03-04T08:09:00.702Z,10.57
2023-03-04T08:11:29.430Z,10.25
2023-03-04T08:13:58.210Z,10.68
2023-03-04T08:16:25.924Z,10.15
2023-03-04T08:18:55.783Z,10.55
2023-03-04T08:21:24.870Z,11.10
2023-03-04T08:23:52.232Z,11.55
2023-03-04T08:26:23.603Z,13.10
2023-03-04T08:28:50.617Z,11.15
2023-03-04T08:31:19.124Z,11.15
2023-03-04T08:33:46.817Z,11.50
2023-03-04T08:36:14.573Z,11.35
2023-03-04T08:38:42.437Z,11.65
2023-03-04T08:41:09.279Z,12.02
2023-03-04T08:43:36.124Z,12.07
2023-03-04T08:46:03.206Z,12.13
2023-03-04T08:48:30.271Z,11.95
2023-03-04T08:50:57.167Z,10.95
2023-03-04T08:53:24.127Z,10.43
2023-03-04T08:55:52.488Z,11.05
2023-03-04T08:58:19.797Z,11.20
2023-03-04T09:00:47.861Z,11.70
2023-03-04T09:03:16.685Z,11.40
2023-03-04T09:05:45.711Z,11.68
2023-03-04T09:08:13.509Z,11.48
2023-03-04T09:10:40.495Z,10.27
2023-03-04T09:13:07.403Z,11.15
2023-03-04T09:15:34.762Z,14.23
2023-03-04T09:18:05.538Z,39.20
2023-03-04T09:20:32.907Z,21.33
2023-03-04T09:23:00.135Z,15.97
2023-03-04T09:25:26.998Z,11.50
2023-03-04T09:27:53.802Z,15.88
2023-03-04T09:30:20.981Z,10.10
2023-03-04T09:32:48.261Z,11.50
2023-03-04T09:35:15.109Z,13.20
2023-03-04T09:37:42.137Z,13.82
2023-03-04T09:40:16.321Z,15.20
2023-03-04T09:43:03.269Z,10.73
2023-03-04T09:45:41.699Z,10.45
2023-03-04T09:48:14.052Z,8.90
2023-03-04T09:50:57.021Z,10.07
2023-03-04T09:53:35.950Z,9.27
2023-03-04T09:56:04.568Z,10.23
2023-03-04T09:58:55.581Z,9.02
2023-03-04T10:01:46.348Z,9.03
2023-03-04T10:04:39.695Z,9.68
2023-03-04T10:07:15.994Z,9.02
2023-03-04T10:09:48.761Z,6.90
2023-03-04T10:12:20.108Z,7.95
2023-03-04T10:14:54.642Z,8.87
2023-03-04T10:17:37.947Z,10.00
2023-03-04T10:20:16.765Z,9.70
2023-03-04T10:22:47.730Z,9.77
2023-03-04T10:25:27.984Z,10.60
2023-03-04T10:27:59.370Z,10.63
2023-03-04T10:30:38.002Z,10.15
2023-03-04T10:33:16.356Z,9.70
2023-03-04T10:36:00.724Z,11.35
2023-03-04T10:38:31.261Z,10.38
2023-03-04T10:40:59.120Z,9.77
2023-03-04T10:43:26.287Z,10.52
2023-03-04T10:45:58.565Z,9.20
2023-03-04T10:48:28.812Z,11.00
2023-03-04T10:51:12.646Z,9.75
2023-03-04T10:53:43.848Z,11.13
2023-03-04T10:56:34.188Z,9.77
2023-03-04T10:59:25.576Z,9.23
2023-03-04T11:01:54.495Z,9.20
2023-03-04T11:04:25.128Z,8.85
2023-03-04T11:06:52.874Z,9.50
2023-03-04T11:09:31.167Z,22.30
2023-03-04T11:12:04.765Z,21.48
2023-03-04T11:14:40.926Z,9.20
2023-03-04T11:17:23.689Z,9.68
2023-03-04T11:20:33.403Z,9.60
2023-03-04T11:23:06.559Z,10.23
2023-03-04T11:25:36.778Z,27.50
2023-03-04T11:28:13.186Z,13.98
2023-03-04T11:30:46.053Z,8.93
2023-03-04T11:33:41.931Z,10.17
2023-03-04T11:36:17.962Z,10.40
2023-03-04T11:38:50.615Z,11.40
2023-03-04T11:41:37.127Z,10.50
2023-03-04T11:44:07.154Z,15.23
2023-03-04T11:46:43.425Z,7.80
2023-03-04T11:49:29.761Z,7.72
2023-03-04T11:52:11.525Z,7.78
2023-03-04T11:55:05.138Z,7.30
2023-03-04T11:57:55.457Z,7.80
2023-03-04T12:00:42.512Z,6.63
2023-03-04T12:03:28.088Z,7.75
2023-03-04T12:06:29.720Z,20.42
2023-03-04T12:09:14.524Z,47.33
2023-03-04T12:12:05.993Z,7.75
2023-03-04T12:14:52.972Z,11.20
2023-03-04T12:17:44.361Z,7.40
2023-03-04T12:20:30.044Z,7.75
2023-03-04T12:23:40.758Z,7.53
2023-03-04T12:26:35.824Z,8.45
2023-03-04T12:29:35.812Z,26.63
2023-03-04T12:32:24.840Z,7.50
2023-03-04T12:35:24.082Z,7.97
2023-03-04T12:37:57.720Z,7.38
2023-03-04T12:41:04.103Z,7.15
2023-03-04T12:43:54.038Z,6.43
2023-03-04T12:46:44.881Z,12.65
2023-03-04T12:49:26.199Z,9.70
2023-03-04T12:51:58.707Z,6.68
2023-03-04T12:54:39.871Z,6.55
2023-03-04T12:57:14.842Z,7.27
2023-03-04T12:59:57.332Z,16.40
2023-03-04T13:02:24.240Z,6.13
2023-03-04T13:05:03.081Z,6.47
2023-03-04T13:07:33.027Z,6.35
2023-03-04T13:10:10.243Z,6.83
2023-03-04T13:13:06.187Z,6.32
2023-03-04T13:15:38.163Z,6.65
2023-03-04T13:18:27.754Z,6.70
2023-03-04T13:21:28.584Z,7.32
2023-03-04T13:23:56.620Z,11.40
2023-03-04T13:26:36.854Z,7.68
2023-03-04T13:29:33.405Z,8.80
2023-03-04T13:32:09.610Z,7.75
2023-03-04T13:34:49.520Z,7.05
2023-03-04T13:37:36.815Z,7.33
2023-03-04T13:40:22.011Z,11.18
2023-03-04T13:42:49.792Z,8.73
2023-03-04T13:45:33.542Z,8.75
2023-03-04T13:48:01.574Z,8.27
2023-03-04T13:50:37.770Z,8.03
2023-03-04T13:53:31.382Z,9.70
2023-03-04T13:56:29.493Z,8.63
2023-03-04T13:59:26.702Z,7.85
2023-03-04T14:02:23.964Z,8.30
2023-03-04T14:04:59.133Z,7.43
2023-03-04T14:07:31.087Z,7.78
2023-03-04T14:10:01.534Z,7.93
2023-03-04T14:12:31.572Z,8.50
2023-03-04T14:15:03.265Z,8.80
2023-03-04T14:17:36.568Z,8.40
2023-03-04T14:20:06.064Z,8.57
2023-03-04T14:22:41.964Z,8.02
2023-03-04T14:25:14.881Z,8.45
2023-03-04T14:27:41.894Z,8.90
2023-03-04T14:30:31.861Z,8.23
2023-03-04T14:33:02.759Z,9.38
2023-03-04T14:35:32.098Z,8.10
2023-03-04T14:38:06.844Z,8.60
2023-03-04T14:40:36.131Z,10.90
2023-03-04T14:43:11.607Z,8.67
2023-03-04T14:45:40.201Z,9.23
2023-03-04T14:48:07.482Z,8.63
2023-03-04T14:50:36.763Z,9.65
2023-03-04T14:53:17.481Z,9.30
2023-03-04T14:56:00.317Z,9.20
2023-03-04T14:58:31.652Z,8.63
2023-03-04T15:01:23.031Z,9.27
2023-03-04T15:04:08.848Z,9.15
2023-03-04T15:06:43.180Z,9.20
2023-03-04T15:09:22.255Z,9.90
2023-03-04T15:11:59.278Z,9.05
2023-03-04T15:14:45.889Z,8.52
2023-03-04T15:17:36.397Z,8.50
2023-03-04T15:20:06.223Z,9.07
2023-03-04T15:22:33.846Z,9.37
2023-03-04T15:25:00.796Z,9.15
2023-03-04T15:27:29.595Z,9.35
2023-03-04T15:29:59.019Z,9.57
2023-03-04T15:32:27.697Z,9.27
2023-03-04T15:34:54.894Z,9.70
2023-03-04T15:37:27.965Z,7.38
2023-03-04T15:39:57.855Z,8.85
2023-03-04T15:42:25.070Z,8.60
2023-03-04T15:44:52.209Z,8.90
2023-03-04T15:47:19.031Z,9.10
2023-03-04T15:49:45.944Z,9.18
2023-03-04T15:52:22.548Z,7.85
2023-03-04T15:54:50.271Z,8.55
2023-03-04T15:57:27.607Z,9.00
2023-03-04T15:59:54.948Z,7.67
2023-03-04T16:02:24.687Z,8.63
2023-03-04T16:04:51.674Z,8.50
2023-03-04T16:07:21.409Z,8.02
2023-03-04T16:09:55.956Z,8.02
2023-03-04T16:12:24.640Z,8.23
2023-03-04T16:14:51.634Z,8.80
2023-03-04T16:17:19.084Z,8.70
2023-03-04T16:19:46.635Z,8.80
2023-03-04T16:22:22.800Z,11.27
2023-03-04T16:24:50.929Z,9.00
2023-03-04T16:27:19.090Z,8.18
2023-03-04T16:29:46.149Z,7.85
2023-03-04T16:32:13.244Z,9.77
2023-03-04T16:34:40.124Z,7.65
2023-03-04T16:37:18.262Z,8.03
2023-03-04T16:39:45.535Z,7.50
2023-03-04T16:42:20.434Z,7.85
2023-03-04T16:44:47.400Z,8.00
2023-03-04T16:47:14.231Z,6.90
2023-03-04T16:49:41.096Z,7.83
2023-03-04T16:52:14.971Z,7.75
2023-03-04T16:54:42.262Z,7.88
2023-03-04T16:57:09.295Z,8.05
2023-03-04T16:59:36.173Z,7.80
2023-03-04T17:02:03.129Z,6.87
2023-03-04T17:04:30.907Z,6.47
2023-03-04T17:06:57.766Z,6.45
2023-03-04T17:09:24.766Z,7.40
2023-03-04T17:11:51.693Z,8.00
2023-03-04T17:14:18.522Z,7.67
2023-03-04T17:16:45.441Z,8.00
2023-03-04T17:19:12.377Z,8.02
2023-03-04T17:21:39.227Z,7.20
2023-03-04T17:24:06.573Z,6.93
2023-03-04T17:26:33.530Z,6.43
2023-03-04T17:29:00.497Z,6.40
2023-03-04T17:31:27.770Z,6.53
2023-03-04T17:33:55.686Z,6.18
2023-03-04T17:36:25.465Z,6.05
2023-03-04T17:38:52.553Z,6.13
2023-03-04T17:41:19.636Z,6.60
2023-03-04T17:43:50.987Z,6.22
2023-03-04T17:46:20.876Z,5.93
2023-03-04T17:48:48.365Z,7.13
2023-03-04T17:51:15.228Z,6.10
2023-03-04T17:53:42.629Z,6.60
2023-03-04T17:56:11.825Z,6.65
2023-03-04T17:58:39.801Z,6.40
2023-03-04T18:01:17.123Z,6.57
2023-03-04T18:03:44.045Z,6.10
2023-03-04T18:06:11.201Z,6.40
2023-03-04T18:08:38.250Z,6.82
2023-03-04T18:11:05.259Z,6.55
2023-03-04T18:13:32.273Z,6.80
2023-03-04T18:15:59.252Z,6.80
2023-03-04T18:18:26.097Z,6.65
2023-03-04T18:20:59.929Z,6.55
2023-03-04T18:23:28.429Z,6.47
2023-03-04T18:25:55.888Z,6.60
2023-03-04T18:28:23.833Z,5.87
2023-03-04T18:30:51.496Z,7.00
2023-03-04T18:33:18.740Z,6.32
2023-03-04T18:35:45.816Z,6.72
2023-03-04T18:38:13.532Z,6.97
2023-03-04T18:40:41.539Z,6.50
2023-03-04T18:43:09.067Z,7.00
2023-03-04T18:45:36.004Z,7.22
2023-03-04T18:48:02.912Z,6.50
2023-03-04T18:50:29.872Z,6.93
2023-03-04T18:52:56.814Z,7.00
2023-03-04T18:55:24.666Z,6.13
2023-03-04T18:57:56.217Z,6.20
2023-03-04T19:00:24.371Z,6.78
2023-03-04T19:02:56.874Z,6.65
2023-03-04T19:05:27.592Z,6.30
2023-03-04T19:07:54.955Z,6.85
2023-03-04T19:10:22.291Z,6.65
2023-03-04T19:12:49.566Z,6.75
2023-03-04T19:15:16.709Z,6.00
2023-03-04T19:17:43.769Z,5.33
2023-03-04T19:20:11.232Z,6.47
2023-03-04T19:22:38.216Z,7.40
2023-03-04T19:25:05.870Z,7.13
2023-03-04T19:27:32.767Z,6.93
2023-03-04T19:29:59.694Z,5.87
2023-03-04T19:32:28.308Z,6.80
2023-03-04T19:34:55.075Z,5.55
2023-03-04T19:37:22.179Z,6.45
2023-03-04T19:39:49.376Z,6.60
2023-03-04T19:42:17.017Z,6.33
2023-03-04T19:44:45.110Z,7.10
2023-03-04T19:47:12.534Z,6.90
2023-03-04T19:49:41.302Z,6.88
2023-03-04T19:52:08.448Z,6.82
2023-03-04T19:54:35.496Z,7.20
2023-03-04T19:57:06.947Z,8.32
2023-03-04T19:59:35.015Z,7.72
2023-03-04T20:02:02.197Z,6.43
2023-03-04T20:04:29.128Z,7.30
2023-03-04T20:06:55.951Z,7.77
2023-03-04T20:09:23.135Z,7.53
2023-03-04T20:11:58.348Z,7.00
2023-03-04T20:14:27.789Z,7.60
2023-03-04T20:16:57.049Z,7.20
2023-03-04T20:19:23.976Z,8.07
2023-03-04T20:21:51.032Z,7.78
2023-03-04T20:24:18.080Z,7.78
2023-03-04T20:26:44.892Z,8.02
2023-03-04T20:29:12.409Z,8.20
2023-03-04T20:31:39.444Z,8.40
2023-03-04T20:34:07.814Z,8.32
2023-03-04T20:36:35.036Z,7.88
2023-03-04T20:39:04.343Z,8.27
2023-03-04T20:41:33.929Z,7.95
2023-03-04T20:44:01.318Z,8.00
2023-03-04T20:46:44.807Z,8.05
2023-03-04T20:49:20.427Z,8.40
2023-03-04T20:51:47.225Z,8.18
2023-03-04T20:54:14.097Z,9.02
2023-03-04T20:56:41.604Z,8.10
2023-03-04T20:59:10.294Z,8.25
2023-03-04T21:01:40.128Z,8.40
2023-03-04T21:04:07.956Z,8.40
2023-03-04T21:06:34.754Z,7.93
2023-03-04T21:09:04.145Z,7.40
2023-03-04T21:11:31.088Z,8.00
2023-03-04T21:13:57.965Z,8.00
2023-03-04T21:16:27.369Z,7.55
2023-03-04T21:18:54.275Z,8.07
2023-03-04T21:21:25.642Z,7.33
2023-03-04T21:23:54.546Z,7.53
2023-03-04T21:26:22.249Z,7.10
2023-03-04T21:28:50.018Z,7.30
2023-03-04T21:31:20.184Z,7.97
2023-03-04T21:33:47.540Z,6.00
2023-03-04T21:36:14.898Z,4.70
2023-03-04T21:38:42.867Z,5.45
2023-03-04T21:41:21.602Z,5.30
2023-03-04T21:43:48.829Z,5.50
2023-03-04T21:46:17.551Z,5.63
2023-03-04T21:48:44.746Z,4.88
2023-03-04T21:51:14.312Z,4.05
2023-03-04T21:53:41.553Z,4.95
2023-03-04T21:56:09.673Z,4.22
2023-03-04T21:58:36.612Z,3.57
2023-03-04T22:01:17.810Z,4.05
2023-03-04T22:03:45.224Z,4.25
2023-03-04T22:06:13.162Z,3.95
2023-03-04T22:08:40.010Z,3.95
2023-03-04T22:11:08.602Z,3.70
2023-03-04T22:13:35.696Z,3.67
2023-03-04T22:16:02.537Z,3.58
2023-03-04T22:18:29.836Z,3.90
2023-03-04T22:21:04.994Z,4.10
2023-03-04T22:23:32.448Z,4.50
2023-03-04T22:26:08.596Z,4.28
2023-03-04T22:28:35.469Z,4.53
2023-03-04T22:31:02.705Z,4.35
2023-03-04T22:33:29.587Z,5.00
2023-03-04T22:35:56.521Z,4.10
2023-03-04T22:38:23.416Z,4.20
2023-03-04T22:40:50.167Z,3.92
2023-03-04T22:43:17.163Z,4.20
2023-03-04T22:45:44.003Z,3.50
2023-03-04T22:48:10.879Z,3.70
2023-03-04T22:50:37.780Z,3.63
2023-03-04T22:53:04.625Z,3.80
2023-03-04T22:55:31.500Z,3.45
2023-03-04T22:57:58.484Z,3.53
2023-03-04T23:00:27.601Z,3.20
2023-03-04T23:02:55.143Z,3.10
2023-03-04T23:05:22.116Z,3.58
2023-03-04T23:07:50.253Z,2.97
2023-03-04T23:10:23.105Z,3.40
2023-03-04T23:12:51.072Z,3.23
2023-03-04T23:15:18.938Z,3.33
2023-03-04T23:17:46.327Z,3.35
2023-03-04T23:20:19.367Z,3.15
2023-03-04T23:22:47.536Z,3.40
2023-03-04T23:25:15.466Z,3.20
2023-03-04T23:27:43.195Z,3.45
2023-03-04T23:30:15.125Z,3.55
2023-03-04T23:32:42.448Z,3.40
2023-03-04T23:35:09.488Z,2.92
2023-03-04T23:37:36.354Z,3.33
2023-03-04T23:40:03.697Z,3.65
2023-03-04T23:42:30.497Z,3.40
2023-03-04T23:44:57.429Z,3.30
2023-03-04T23:47:26.983Z,3.97
2023-03-04T23:49:53.940Z,3.97
2023-03-04T23:52:20.940Z,3.92
2023-03-04T23:54:47.836Z,3.75
2023-03-04T23:57:14.770Z,3.55
2023-03-04T23:59:42.194Z,3.67
